createdAt,value
2023-04-22T00:00:05.073Z,96510.53
2023-04-22T00:01:07.041Z,96510.75
2023-04-22T00:02:09.121Z,96502.94
2023-04-22T00:03:11.102Z,96510.56
2023-04-22T00:04:13.393Z,96506.38
2023-04-22T00:05:17.989Z,96506.13
2023-04-22T00:06:22.030Z,96508.53
2023-04-22T00:07:23.858Z,96502.34
2023-04-22T00:08:25.898Z,96502.94
2023-04-22T00:09:27.727Z,96505.34
2023-04-22T00:10:29.482Z,96506.72
2023-04-22T00:11:31.284Z,96508.91
2023-04-22T00:12:33.083Z,96500.09
2023-04-22T00:13:35.057Z,96504.56
2023-04-22T00:14:36.913Z,96501.75
2023-04-22T00:15:38.991Z,96503.38
2023-04-22T00:16:40.904Z,96502.56
2023-04-22T00:17:43.009Z,96500.97
2023-04-22T00:18:44.913Z,96498.56
2023-04-22T00:19:46.733Z,96500.78
2023-04-22T00:20:49.538Z,96499.00
2023-04-22T00:21:51.289Z,96502.59
2023-04-22T00:22:53.041Z,96503.22
2023-04-22T00:23:54.873Z,96502.00
2023-04-22T00:24:56.700Z,96507.81
2023-04-22T00:25:58.499Z,96506.59
2023-04-22T00:27:01.292Z,96502.19
2023-04-22T00:28:03.124Z,96490.59
2023-04-22T00:29:05.036Z,96497.59
2023-04-22T00:30:07.182Z,96496.19
2023-04-22T00:31:08.976Z,96500.56
2023-04-22T00:32:11.089Z,96500.56
2023-04-22T00:33:12.957Z,96496.19
2023-04-22T00:34:14.746Z,96497.75
2023-04-22T00:35:16.650Z,96494.16
2023-04-22T00:36:18.371Z,96493.34
2023-04-22T00:37:20.138Z,96491.16
2023-04-22T00:38:22.137Z,96486.75
2023-04-22T00:39:23.878Z,96497.38
2023-04-22T00:40:26.313Z,96486.97
2023-04-22T00:41:28.269Z,96485.38
2023-04-22T00:42:30.568Z,96491.78
2023-04-22T00:43:32.383Z,96493.97
2023-04-22T00:44:34.225Z,96490.75
2023-04-22T00:45:37.143Z,96489.00
2023-04-22T00:46:39.998Z,96487.19
2023-04-22T00:47:42.144Z,96476.59
2023-04-22T00:48:43.953Z,96488.00
2023-04-22T00:49:46.151Z,96485.84
2023-04-22T00:50:47.902Z,96484.44
2023-04-22T00:51:49.680Z,96482.41
2023-04-22T00:52:51.565Z,96483.63
2023-04-22T00:53:53.296Z,96482.63
2023-04-22T00:54:55.277Z,96483.81
2023-04-22T00:55:58.356Z,96489.63
2023-04-22T00:57:00.265Z,96488.25
2023-04-22T00:58:03.276Z,96485.41
2023-04-22T00:59:05.141Z,96481.81
2023-04-22T01:00:07.296Z,96492.03
2023-04-22T01:01:09.720Z,96485.63
2023-04-22T01:02:12.098Z,96491.84
2023-04-22T01:03:14.522Z,96482.84
2023-04-22T01:04:16.587Z,96488.44
2023-04-22T01:05:18.565Z,96479.06
2023-04-22T01:06:20.638Z,96487.66
2023-04-22T01:07:22.420Z,96494.03
2023-04-22T01:08:29.424Z,96489.44
2023-04-22T01:09:31.239Z,96488.84
2023-04-22T01:10:33.157Z,96487.44
2023-04-22T01:11:36.252Z,96484.06
2023-04-22T01:12:37.964Z,96491.44
2023-04-22T01:13:39.768Z,96487.03
2023-04-22T01:14:41.868Z,96483.47
2023-04-22T01:15:43.666Z,96485.03
2023-04-22T01:16:45.691Z,96490.03
2023-04-22T01:17:48.296Z,96484.25
2023-04-22T01:18:50.211Z,96480.25
2023-04-22T01:19:53.067Z,96488.25
2023-04-22T01:20:54.912Z,96483.03
2023-04-22T01:21:57.341Z,96481.84
2023-04-22T01:23:03.363Z,96483.25
2023-04-22T01:24:05.379Z,96481.25
2023-04-22T01:25:07.384Z,96487.63
2023-04-22T01:26:09.222Z,96488.47
2023-04-22T01:27:12.015Z,96486.25
2023-04-22T01:28:14.329Z,96478.66
2023-04-22T01:29:16.334Z,96479.84
2023-04-22T01:30:18.156Z,96486.88
2023-04-22T01:31:20.340Z,96484.47
2023-04-22T01:32:22.249Z,96486.25
2023-04-22T01:33:24.267Z,96487.44
2023-04-22T01:34:26.725Z,96480.84
2023-04-22T01:35:30.468Z,96487.25
2023-04-22T01:36:32.989Z,96485.06
2023-04-22T01:37:35.059Z,96484.44
2023-04-22T01:38:36.942Z,96482.84
2023-04-22T01:39:39.018Z,96483.25
2023-04-22T01:40:41.284Z,96488.03
2023-04-22T01:41:43.010Z,96484.06
2023-04-22T01:42:44.900Z,96483.06
2023-04-22T01:43:46.903Z,96483.66
2023-04-22T01:44:48.738Z,96483.06
2023-04-22T01:45:50.544Z,96480.44
2023-04-22T01:46:52.332Z,96485.06
2023-04-22T01:47:54.863Z,96479.84
2023-04-22T01:48:56.696Z,96487.47
2023-04-22T01:49:58.565Z,96491.03
2023-04-22T01:51:00.444Z,96492.06
2023-04-22T01:52:02.214Z,96495.06
2023-04-22T01:53:04.223Z,96487.66
2023-04-22T01:54:06.157Z,96485.47
2023-04-22T01:55:08.556Z,96487.84
2023-04-22T01:56:10.362Z,96489.06
2023-04-22T01:57:14.544Z,96483.44
2023-04-22T01:58:16.427Z,96484.25
2023-04-22T01:59:18.219Z,96486.44
2023-04-22T02:00:19.972Z,96484.44
2023-04-22T02:01:21.869Z,96486.03
2023-04-22T02:02:23.852Z,96486.25
2023-04-22T02:03:25.897Z,96494.03
2023-04-22T02:04:27.977Z,96495.47
2023-04-22T02:05:29.911Z,96486.47
2023-04-22T02:06:32.591Z,96491.06
2023-04-22T02:07:34.457Z,96494.44
2023-04-22T02:08:36.402Z,96492.25
2023-04-22T02:09:38.250Z,96481.03
2023-04-22T02:10:41.434Z,96487.84
2023-04-22T02:11:43.181Z,96486.06
2023-04-22T02:12:45.001Z,96489.44
2023-04-22T02:13:46.745Z,96495.06
2023-04-22T02:14:48.512Z,96492.44
2023-04-22T02:15:52.509Z,96489.44
2023-04-22T02:16:54.628Z,96485.44
2023-04-22T02:17:56.397Z,96487.44
2023-04-22T02:18:58.334Z,96489.03
2023-04-22T02:20:00.221Z,96483.44
2023-04-22T02:21:02.614Z,96485.66
2023-04-22T02:22:04.610Z,96486.44
2023-04-22T02:23:06.771Z,96485.19
2023-04-22T02:24:08.656Z,96484.59
2023-04-22T02:25:12.604Z,96489.19
2023-04-22T02:26:14.383Z,96479.41
2023-04-22T02:27:16.156Z,96482.19
2023-04-22T02:28:18.332Z,96485.59
2023-04-22T02:29:20.174Z,96479.63
2023-04-22T02:30:23.506Z,96480.81
2023-04-22T02:31:25.537Z,96481.22
2023-04-22T02:32:27.444Z,96483.84
2023-04-22T02:33:29.293Z,96475.59
2023-04-22T02:34:31.187Z,96479.78
2023-04-22T02:35:33.515Z,96484.19
2023-04-22T02:36:35.299Z,96480.56
2023-04-22T02:37:37.113Z,96481.78
2023-04-22T02:38:38.831Z,96482.56
2023-04-22T02:39:40.951Z,96485.78
2023-04-22T02:40:43.094Z,96483.78
2023-04-22T02:41:44.857Z,96484.97
2023-04-22T02:42:48.729Z,96481.78
2023-04-22T02:43:50.530Z,96486.38
2023-04-22T02:44:52.302Z,96483.16
2023-04-22T02:45:54.557Z,96484.75
2023-04-22T02:46:56.556Z,96479.38
2023-04-22T02:47:58.629Z,96487.16
2023-04-22T02:49:00.462Z,96474.75
2023-04-22T02:50:02.220Z,96482.75
2023-04-22T02:51:04.182Z,96488.13
2023-04-22T02:52:06.015Z,96478.53
2023-04-22T02:53:08.534Z,96476.97
2023-04-22T02:54:10.313Z,96480.94
2023-04-22T02:55:12.182Z,96482.16
2023-04-22T02:56:14.005Z,96481.75
2023-04-22T02:57:15.824Z,96490.97
2023-04-22T02:58:17.759Z,96478.56
2023-04-22T02:59:19.549Z,96484.16
2023-04-22T03:00:21.390Z,96482.16
2023-04-22T03:01:23.439Z,96483.31
2023-04-22T03:02:25.535Z,96482.13
2023-04-22T03:03:27.832Z,96482.94
2023-04-22T03:04:29.909Z,96480.34
2023-04-22T03:05:31.747Z,96483.34
2023-04-22T03:06:33.584Z,96482.50
2023-04-22T03:07:35.321Z,96475.50
2023-04-22T03:08:37.117Z,96487.72
2023-04-22T03:09:39.007Z,96477.94
2023-04-22T03:10:41.252Z,96474.53
2023-04-22T03:11:43.172Z,96475.34
2023-04-22T03:12:44.980Z,96476.94
2023-04-22T03:13:46.836Z,96482.94
2023-04-22T03:14:48.783Z,96481.91
2023-04-22T03:15:50.648Z,96478.16
2023-04-22T03:16:53.676Z,96486.13
2023-04-22T03:17:55.611Z,96484.50
2023-04-22T03:18:57.369Z,96475.94
2023-04-22T03:19:59.250Z,96486.75
2023-04-22T03:21:01.307Z,96483.34
2023-04-22T03:22:04.549Z,96489.31
2023-04-22T03:23:07.882Z,96487.69
2023-04-22T03:24:09.640Z,96480.69
2023-04-22T03:25:11.651Z,96485.47
2023-04-22T03:26:13.999Z,96487.28
2023-04-22T03:27:15.948Z,96480.09
2023-04-22T03:28:17.656Z,96487.28
2023-04-22T03:29:19.405Z,96488.13
2023-04-22T03:30:21.378Z,96483.28
2023-04-22T03:31:23.258Z,96477.13
2023-04-22T03:32:25.218Z,96481.72
2023-04-22T03:33:27.692Z,96485.06
2023-04-22T03:34:29.485Z,96482.63
2023-04-22T03:35:31.361Z,96476.81
2023-04-22T03:36:33.228Z,96479.59
2023-04-22T03:37:36.603Z,96481.22
2023-04-22T03:38:38.422Z,96478.63
2023-04-22T03:39:41.862Z,96478.81
2023-04-22T03:40:43.987Z,96483.22
2023-04-22T03:41:45.791Z,96481.59
2023-04-22T03:42:47.575Z,96481.22
2023-04-22T03:43:50.015Z,96476.41
2023-04-22T03:44:51.893Z,96482.38
2023-04-22T03:45:53.821Z,96479.97
2023-04-22T03:46:55.697Z,96478.97
2023-04-22T03:47:58.018Z,96476.81
2023-04-22T03:48:59.877Z,96485.56
2023-04-22T03:50:01.649Z,96484.78
2023-04-22T03:51:03.751Z,96477.00
2023-04-22T03:52:05.637Z,96479.41
2023-04-22T03:53:07.848Z,96479.22
2023-04-22T03:54:09.658Z,96475.41
2023-04-22T03:55:11.514Z,96483.97
2023-04-22T03:56:13.327Z,96484.75
2023-04-22T03:57:15.132Z,96473.75
2023-04-22T03:58:16.950Z,96482.31
2023-04-22T03:59:18.963Z,96478.72
2023-04-22T04:00:20.768Z,96484.16
2023-04-22T04:01:23.827Z,96485.13
2023-04-22T04:02:25.753Z,96488.72
2023-04-22T04:03:30.305Z,96490.31
2023-04-22T04:04:33.885Z,96486.13
2023-04-22T04:05:36.076Z,96488.50
2023-04-22T04:06:37.920Z,96487.09
2023-04-22T04:07:39.833Z,96482.09
2023-04-22T04:08:41.621Z,96483.94
2023-04-22T04:09:44.685Z,96485.91
2023-04-22T04:10:46.519Z,96487.09
2023-04-22T04:11:48.269Z,96482.31
2023-04-22T04:12:49.998Z,96488.72
2023-04-22T04:13:51.839Z,96499.47
2023-04-22T04:14:54.646Z,96497.47
2023-04-22T04:15:56.506Z,96496.44
2023-04-22T04:16:58.847Z,96499.63
2023-04-22T04:18:01.974Z,96495.03
2023-04-22T04:19:05.654Z,96497.63
2023-04-22T04:20:07.835Z,96493.00
2023-04-22T04:21:11.046Z,96488.66
2023-04-22T04:22:12.920Z,96493.47
2023-04-22T04:23:14.738Z,96499.88
2023-04-22T04:24:16.677Z,96498.88
2023-04-22T04:25:18.720Z,96487.09
2023-04-22T04:26:20.718Z,96500.31
2023-04-22T04:27:23.862Z,96493.53
2023-04-22T04:28:25.698Z,96494.31
2023-04-22T04:29:27.533Z,96501.09
2023-04-22T04:30:31.061Z,96495.91
2023-04-22T04:31:34.374Z,96497.50
2023-04-22T04:32:37.003Z,96494.47
2023-04-22T04:33:39.421Z,96504.25
2023-04-22T04:34:42.597Z,96498.25
2023-04-22T04:35:45.070Z,96500.28
2023-04-22T04:36:47.017Z,96501.47
2023-04-22T04:37:48.745Z,96499.06
2023-04-22T04:38:52.053Z,96500.28
2023-04-22T04:39:55.729Z,96498.09
2023-04-22T04:40:58.263Z,96500.28
2023-04-22T04:42:00.766Z,96496.09
2023-04-22T04:43:02.779Z,96502.06
2023-04-22T04:44:04.868Z,96495.47
2023-04-22T04:45:07.887Z,96505.47
2023-04-22T04:46:09.767Z,96507.50
2023-04-22T04:47:13.597Z,96507.09
2023-04-22T04:48:15.971Z,96504.50
2023-04-22T04:49:18.102Z,96509.88
2023-04-22T04:50:23.026Z,96501.47
2023-04-22T04:51:24.816Z,96505.44
2023-04-22T04:52:27.288Z,96504.22
2023-04-22T04:53:29.107Z,96507.44
2023-04-22T04:54:30.893Z,96504.22
2023-04-22T04:55:32.724Z,96503.00
2023-04-22T04:56:34.581Z,96508.81
2023-04-22T04:57:38.398Z,96506.44
2023-04-22T04:58:40.392Z,96505.88
2023-04-22T04:59:42.359Z,96508.47
2023-04-22T05:00:44.419Z,96502.84
2023-04-22T05:01:46.377Z,96506.22
2023-04-22T05:02:48.324Z,96504.50
2023-04-22T05:03:50.403Z,96507.50
2023-04-22T05:04:52.488Z,96503.09
2023-04-22T05:05:54.538Z,96512.31
2023-04-22T05:06:56.329Z,96513.91
2023-04-22T05:07:58.132Z,96515.44
2023-04-22T05:09:00.763Z,96511.44
2023-04-22T05:10:02.796Z,96514.06
2023-04-22T05:11:04.640Z,96513.47
2023-04-22T05:12:06.438Z,96514.25
2023-04-22T05:13:08.250Z,96518.66
2023-04-22T05:14:10.715Z,96517.06
2023-04-22T05:15:12.535Z,96520.84
2023-04-22T05:16:14.374Z,96510.66
2023-04-22T05:17:16.199Z,96516.66
2023-04-22T05:18:18.155Z,96516.88
2023-04-22T05:19:19.943Z,96509.09
2023-04-22T05:20:21.792Z,96513.72
2023-04-22T05:21:23.689Z,96514.53
2023-04-22T05:22:25.444Z,96517.72
2023-04-22T05:23:27.260Z,96515.94
2023-04-22T05:24:29.146Z,96513.56
2023-04-22T05:25:30.983Z,96522.75
2023-04-22T05:26:32.818Z,96514.72
2023-04-22T05:27:34.835Z,96516.72
2023-04-22T05:28:36.670Z,96509.34
2023-04-22T05:29:38.829Z,96509.16
2023-04-22T05:30:40.735Z,96511.38
2023-04-22T05:31:42.659Z,96510.59
2023-04-22T05:32:44.643Z,96512.22
2023-04-22T05:33:46.381Z,96511.41
2023-04-22T05:34:48.132Z,96511.19
2023-04-22T05:35:51.399Z,96514.41
2023-04-22T05:36:53.157Z,96509.63
2023-04-22T05:37:54.904Z,96510.84
2023-04-22T05:38:56.669Z,96505.66
2023-04-22T05:39:58.412Z,96506.47
2023-04-22T05:41:00.206Z,96513.25
2023-04-22T05:42:02.242Z,96512.28
2023-04-22T05:43:04.061Z,96516.47
2023-04-22T05:44:05.806Z,96514.88
2023-04-22T05:45:08.050Z,96511.88
2023-04-22T05:46:09.922Z,96506.31
2023-04-22T05:47:11.656Z,96512.91
2023-04-22T05:48:13.449Z,96517.13
2023-04-22T05:49:15.334Z,96523.91
2023-04-22T05:50:17.139Z,96513.50
2023-04-22T05:51:19.018Z,96514.91
2023-04-22T05:52:20.861Z,96511.75
2023-04-22T05:53:22.700Z,96516.16
2023-04-22T05:54:24.562Z,96513.38
2023-04-22T05:55:27.156Z,96521.97
2023-04-22T05:56:29.014Z,96512.19
2023-04-22T05:57:31.694Z,96513.38
2023-04-22T05:58:33.535Z,96510.59
2023-04-22T05:59:35.369Z,96515.56
2023-04-22T06:00:37.154Z,96507.41
2023-04-22T06:01:39.088Z,96518.22
2023-04-22T06:02:41.088Z,96517.63
2023-04-22T06:03:43.610Z,96511.03
2023-04-22T06:04:46.971Z,96513.03
2023-04-22T06:05:49.214Z,96516.28
2023-04-22T06:06:54.113Z,96513.47
2023-04-22T06:07:55.913Z,96515.06
2023-04-22T06:08:57.756Z,96517.69
2023-04-22T06:10:04.722Z,96511.06
2023-04-22T06:11:07.475Z,96509.47
2023-04-22T06:12:09.279Z,96507.06
2023-04-22T06:13:11.052Z,96506.44
2023-04-22T06:14:13.402Z,96512.66
2023-04-22T06:15:15.188Z,96509.44
2023-04-22T06:16:17.853Z,96504.25
2023-04-22T06:17:19.645Z,96505.25
2023-04-22T06:18:21.449Z,96507.81
2023-04-22T06:19:23.216Z,96501.00
2023-04-22T06:20:25.017Z,96502.78
2023-04-22T06:21:27.029Z,96502.56
2023-04-22T06:22:28.838Z,96500.53
2023-04-22T06:23:30.728Z,96500.72
2023-04-22T06:24:32.531Z,96505.31
2023-04-22T06:25:34.378Z,96492.47
2023-04-22T06:26:37.021Z,96492.44
2023-04-22T06:27:38.966Z,96491.41
2023-04-22T06:28:41.005Z,96495.56
2023-04-22T06:29:42.824Z,96496.34
2023-04-22T06:30:44.618Z,96492.31
2023-04-22T06:31:46.405Z,96490.69
2023-04-22T06:32:48.241Z,96487.25
2023-04-22T06:33:50.087Z,96490.44
2023-04-22T06:34:51.911Z,96489.44
2023-04-22T06:35:53.831Z,96484.56
2023-04-22T06:36:55.662Z,96487.56
2023-04-22T06:37:57.435Z,96494.41
2023-04-22T06:39:00.865Z,96487.75
2023-04-22T06:40:02.681Z,96484.50
2023-04-22T06:41:04.475Z,96497.72
2023-04-22T06:42:06.264Z,96490.03
2023-04-22T06:43:08.036Z,96489.00
2023-04-22T06:44:10.845Z,96484.34
2023-04-22T06:45:13.253Z,96485.31
2023-04-22T06:46:15.100Z,96490.50
2023-04-22T06:47:16.893Z,96489.44
2023-04-22T06:48:18.623Z,96486.34
2023-04-22T06:49:21.870Z,96485.25
2023-04-22T06:50:23.661Z,96479.97
2023-04-22T06:51:25.511Z,96486.75
2023-04-22T06:52:27.256Z,96480.66
2023-04-22T06:53:29.027Z,96477.19
2023-04-22T06:54:32.187Z,96485.72
2023-04-22T06:55:34.010Z,96481.25
2023-04-22T06:56:36.342Z,96480.59
2023-04-22T06:57:38.170Z,96480.94
2023-04-22T06:58:39.951Z,96479.28
2023-04-22T06:59:44.489Z,96479.41
2023-04-22T07:00:48.630Z,96485.72
2023-04-22T07:01:50.400Z,96477.03
2023-04-22T07:02:52.282Z,96477.94
2023-04-22T07:03:54.198Z,96474.25
2023-04-22T07:04:56.232Z,96479.38
2023-04-22T07:05:58.020Z,96483.50
2023-04-22T07:06:59.905Z,96480.84
2023-04-22T07:08:01.678Z,96470.38
2023-04-22T07:09:03.521Z,96474.28
2023-04-22T07:10:06.281Z,96474.97
2023-04-22T07:11:08.093Z,96480.34
2023-04-22T07:12:09.835Z,96472.19
2023-04-22T07:13:11.677Z,96476.06
2023-04-22T07:14:13.461Z,96469.38
2023-04-22T07:15:15.240Z,96469.25
2023-04-22T07:16:17.134Z,96464.94
2023-04-22T07:17:22.372Z,96473.47
2023-04-22T07:18:24.139Z,96466.09
2023-04-22T07:19:25.986Z,96471.06
2023-04-22T07:20:27.853Z,96469.38
2023-04-22T07:21:32.818Z,96472.34
2023-04-22T07:22:34.589Z,96463.00
2023-04-22T07:23:36.595Z,96463.91
2023-04-22T07:24:39.217Z,96467.66
2023-04-22T07:25:41.168Z,96461.16
2023-04-22T07:26:43.657Z,96464.72
2023-04-22T07:27:45.509Z,96471.66
2023-04-22T07:28:47.448Z,96460.97
2023-04-22T07:29:49.260Z,96463.09
2023-04-22T07:30:51.226Z,96460.38
2023-04-22T07:31:53.082Z,96461.50
2023-04-22T07:32:55.730Z,96466.38
2023-04-22T07:33:57.499Z,96455.53
2023-04-22T07:34:59.321Z,96455.84
2023-04-22T07:36:01.253Z,96454.34
2023-04-22T07:37:03.110Z,96462.81
2023-04-22T07:38:05.419Z,96460.28
2023-04-22T07:39:08.225Z,96455.69
2023-04-22T07:40:12.166Z,96452.13
2023-04-22T07:41:14.220Z,96454.84
2023-04-22T07:42:16.423Z,96454.94
2023-04-22T07:43:18.285Z,96445.56
2023-04-22T07:44:21.882Z,96452.50
2023-04-22T07:45:23.657Z,96453.13
2023-04-22T07:46:25.562Z,96457.38
2023-04-22T07:47:27.676Z,96456.41
2023-04-22T07:48:29.551Z,96454.44
2023-04-22T07:49:31.371Z,96454.53
2023-04-22T07:50:33.254Z,96452.00
2023-04-22T07:51:35.059Z,96453.09
2023-04-22T07:52:36.885Z,96447.41
2023-04-22T07:53:38.620Z,96444.88
2023-04-22T07:54:40.572Z,96448.91
2023-04-22T07:55:42.439Z,96447.88
2023-04-22T07:56:44.406Z,96445.56
2023-04-22T07:57:46.236Z,96451.16
2023-04-22T07:58:48.004Z,96454.91
2023-04-22T07:59:50.026Z,96450.03
2023-04-22T08:00:52.035Z,96448.00
2023-04-22T08:01:54.032Z,96441.25
2023-04-22T08:02:56.182Z,96449.75
2023-04-22T08:03:58.359Z,96445.94
2023-04-22T08:05:00.418Z,96444.97
2023-04-22T08:06:02.155Z,96443.66
2023-04-22T08:07:17.178Z,96444.78
2023-04-22T08:08:26.904Z,96442.47
2023-04-22T08:09:28.609Z,96445.31
2023-04-22T08:10:30.397Z,96446.66
2023-04-22T08:11:32.247Z,96433.59
2023-04-22T08:12:34.055Z,96441.56
2023-04-22T08:13:35.969Z,96440.81
2023-04-22T08:14:37.747Z,96431.41
2023-04-22T08:15:40.287Z,96434.09
2023-04-22T08:16:43.083Z,96432.53
2023-04-22T08:17:44.959Z,96436.53
2023-04-22T08:18:46.831Z,96432.06
2023-04-22T08:19:49.266Z,96433.16
2023-04-22T08:20:52.419Z,96430.38
2023-04-22T08:21:54.189Z,96432.28
2023-04-22T08:23:00.572Z,96428.59
2023-04-22T08:24:02.382Z,96428.13
2023-04-22T08:25:04.318Z,96430.47
2023-04-22T08:26:07.036Z,96435.03
2023-04-22T08:27:08.855Z,96431.88
2023-04-22T08:28:11.421Z,96438.78
2023-04-22T08:29:13.459Z,96435.59
2023-04-22T08:30:15.371Z,96434.84
2023-04-22T08:31:18.184Z,96434.38
2023-04-22T08:32:22.636Z,96432.34
2023-04-22T08:33:26.650Z,96434.00
2023-04-22T08:34:29.345Z,96433.00
2023-04-22T08:35:31.720Z,96429.84
2023-04-22T08:36:33.638Z,96433.03
2023-04-22T08:37:35.487Z,96426.97
2023-04-22T08:38:37.614Z,96432.22
2023-04-22T08:39:39.639Z,96426.44
2023-04-22T08:40:42.848Z,96423.88
2023-04-22T08:41:46.105Z,96423.66
2023-04-22T08:42:48.428Z,96426.66
2023-04-22T08:43:50.867Z,96427.72
2023-04-22T08:44:53.334Z,96425.13
2023-04-22T08:45:56.831Z,96430.16
2023-04-22T08:47:00.828Z,96421.78
2023-04-22T08:48:04.778Z,96430.75
2023-04-22T08:49:06.625Z,96426.59
2023-04-22T08:50:09.956Z,96423.19
2023-04-22T08:51:11.770Z,96419.00
2023-04-22T08:52:15.730Z,96410.06
2023-04-22T08:53:17.527Z,96420.09
2023-04-22T08:54:19.291Z,96409.84
2023-04-22T08:55:21.573Z,96418.03
2023-04-22T08:56:25.128Z,96411.75
2023-04-22T08:57:27.366Z,96409.41
2023-04-22T08:58:31.156Z,96412.56
2023-04-22T08:59:34.195Z,96408.88
2023-04-22T09:00:36.515Z,96416.00
2023-04-22T09:01:39.441Z,96409.69
2023-04-22T09:02:45.231Z,96419.69
2023-04-22T09:03:49.132Z,96417.09
2023-04-22T09:04:52.018Z,96413.16
2023-04-22T09:05:55.224Z,96414.53
2023-04-22T09:06:57.276Z,96407.97
2023-04-22T09:07:59.147Z,96406.66
2023-04-22T09:09:01.632Z,96409.28
2023-04-22T09:10:03.464Z,96408.25
2023-04-22T09:11:05.421Z,96408.53
2023-04-22T09:12:07.141Z,96399.84
2023-04-22T09:13:10.540Z,96403.53
2023-04-22T09:14:12.511Z,96403.00
2023-04-22T09:15:14.270Z,96394.34
2023-04-22T09:16:16.136Z,96398.56
2023-04-22T09:17:18.997Z,96393.03
2023-04-22T09:18:21.138Z,96394.66
2023-04-22T09:19:24.434Z,96391.25
2023-04-22T09:20:27.161Z,96394.16
2023-04-22T09:21:29.262Z,96390.47
2023-04-22T09:22:38.371Z,96390.47
2023-04-22T09:23:54.126Z,96386.75
2023-04-22T09:24:59.618Z,96387.56
2023-04-22T09:26:01.579Z,96389.16
2023-04-22T09:27:03.937Z,96385.19
2023-04-22T09:28:05.748Z,96380.72
2023-04-22T09:29:09.824Z,96385.50
2023-04-22T09:30:11.765Z,96383.38
2023-04-22T09:31:16.726Z,96381.78
2023-04-22T09:32:18.873Z,96376.22
2023-04-22T09:33:20.883Z,96377.56
2023-04-22T09:34:22.729Z,96372.00
2023-04-22T09:35:28.207Z,96374.63
2023-04-22T09:36:30.572Z,96373.34
2023-04-22T09:37:48.557Z,96382.31
2023-04-22T09:38:55.654Z,96378.34
2023-04-22T09:39:57.471Z,96370.97
2023-04-22T09:40:59.269Z,96369.91
2023-04-22T09:42:01.372Z,96370.94
2023-04-22T09:43:06.158Z,96370.94
2023-04-22T09:44:14.085Z,96365.66
2023-04-22T09:45:25.308Z,96369.59
2023-04-22T09:46:28.292Z,96369.59
2023-04-22T09:47:35.557Z,96370.38
2023-04-22T09:48:42.649Z,96365.59
2023-04-22T09:49:48.113Z,96364.78
2023-04-22T09:50:51.304Z,96368.47
2023-04-22T09:51:56.924Z,96368.75
2023-04-22T09:53:06.778Z,96363.16
2023-04-22T09:54:11.761Z,96361.53
2023-04-22T09:55:13.833Z,96361.75
2023-04-22T09:56:15.678Z,96359.94
2023-04-22T09:57:17.693Z,96356.19
2023-04-22T09:58:21.152Z,96354.59
2023-04-22T09:59:28.302Z,96356.16
2023-04-22T10:00:30.920Z,96350.56
2023-04-22T10:01:37.378Z,96349.72
2023-04-22T10:02:39.304Z,96344.66
2023-04-22T10:03:41.183Z,96349.94
2023-04-22T10:04:43.109Z,96345.91
2023-04-22T10:05:46.326Z,96348.28
2023-04-22T10:06:48.986Z,96339.75
2023-04-22T10:07:51.572Z,96343.97
2023-04-22T10:08:53.524Z,96344.13
2023-04-22T10:09:55.327Z,96348.53
2023-04-22T10:10:57.209Z,96343.44
2023-04-22T10:11:59.423Z,96343.06
2023-04-22T10:13:01.703Z,96351.75
2023-04-22T10:14:03.632Z,96349.03
2023-04-22T10:15:06.705Z,96348.16
2023-04-22T10:16:08.622Z,96343.81
2023-04-22T10:17:11.046Z,96347.38
2023-04-22T10:18:14.120Z,96351.22
2023-04-22T10:19:18.259Z,96346.28
2023-04-22T10:20:21.513Z,96349.63
2023-04-22T10:21:26.365Z,96346.88
2023-04-22T10:22:28.324Z,96347.97
2023-04-22T10:23:32.663Z,96351.66
2023-04-22T10:24:37.923Z,96347.28
2023-04-22T10:25:40.409Z,96343.44
2023-04-22T10:26:57.244Z,96341.16
2023-04-22T10:28:03.535Z,96340.50
2023-04-22T10:29:11.203Z,96334.03
2023-04-22T10:30:27.058Z,96338.97
2023-04-22T10:31:29.063Z,96336.19
2023-04-22T10:32:32.121Z,96338.19
2023-04-22T10:33:36.231Z,96337.31
2023-04-22T10:34:39.334Z,96331.91
2023-04-22T10:35:41.361Z,96330.97
2023-04-22T10:37:01.808Z,96335.63
2023-04-22T10:38:07.834Z,96330.63
2023-04-22T10:39:09.571Z,96325.13
2023-04-22T10:40:16.339Z,96336.38
2023-04-22T10:41:22.657Z,96326.44
2023-04-22T10:42:29.051Z,96330.47
2023-04-22T10:43:55.734Z,96326.34
2023-04-22T10:45:01.985Z,96328.75
2023-04-22T10:46:03.864Z,96325.06
2023-04-22T10:47:05.794Z,96326.72
2023-04-22T10:48:07.640Z,96321.69
2023-04-22T10:49:10.732Z,96321.44
2023-04-22T10:50:12.388Z,96320.63
2023-04-22T10:51:33.438Z,96327.16
2023-04-22T10:52:35.276Z,96318.44
2023-04-22T10:53:37.479Z,96324.94
2023-04-22T10:54:39.320Z,96316.72
2023-04-22T10:55:53.679Z,96317.25
2023-04-22T10:57:09.016Z,96316.41
2023-04-22T10:58:19.462Z,96321.28
2023-04-22T10:59:21.319Z,96317.69
2023-04-22T11:00:24.920Z,96316.63
2023-04-22T11:01:30.057Z,96322.91
2023-04-22T11:02:31.902Z,96314.63
2023-04-22T11:03:33.847Z,96312.03
2023-04-22T11:04:36.068Z,96315.22
2023-04-22T11:05:39.256Z,96311.72
2023-04-22T11:06:41.146Z,96319.00
2023-04-22T11:07:43.015Z,96318.34
2023-04-22T11:08:45.991Z,96315.81
2023-04-22T11:09:50.818Z,96319.19
2023-04-22T11:10:53.743Z,96315.31
2023-04-22T11:12:15.480Z,96320.84
2023-04-22T11:13:19.488Z,96314.53
2023-04-22T11:14:21.971Z,96315.81
2023-04-22T11:15:24.295Z,96307.66
2023-04-22T11:16:26.165Z,96308.16
2023-04-22T11:17:28.151Z,96319.38
2023-04-22T11:18:30.165Z,96312.78
2023-04-22T11:19:32.185Z,96305.13
2023-04-22T11:20:34.158Z,96309.97
2023-04-22T11:21:35.971Z,96302.59
2023-04-22T11:22:38.446Z,96308.25
2023-04-22T11:23:49.631Z,96309.66
2023-04-22T11:24:58.218Z,96313.97
2023-04-22T11:26:01.489Z,96301.81
2023-04-22T11:27:03.314Z,96304.34
2023-04-22T11:28:05.292Z,96296.00
2023-04-22T11:29:07.102Z,96299.41
2023-04-22T11:30:12.282Z,96304.06
2023-04-22T11:31:15.361Z,96299.69
2023-04-22T11:32:17.203Z,96297.31
2023-04-22T11:33:19.868Z,96295.19
2023-04-22T11:34:21.736Z,96291.72
2023-04-22T11:35:24.998Z,96299.75
2023-04-22T11:36:27.839Z,96294.84
2023-04-22T11:37:29.731Z,96300.00
2023-04-22T11:38:31.744Z,96300.41
2023-04-22T11:39:43.576Z,96299.72
2023-04-22T11:40:52.203Z,96297.69
2023-04-22T11:41:53.994Z,96297.84
2023-04-22T11:42:57.033Z,96296.72
2023-04-22T11:44:00.548Z,96293.59
2023-04-22T11:45:02.389Z,96292.31
2023-04-22T11:46:05.525Z,96298.63
2023-04-22T11:47:07.388Z,96305.72
2023-04-22T11:48:10.129Z,96298.31
2023-04-22T11:49:14.337Z,96300.91
2023-04-22T11:50:16.729Z,96298.09
2023-04-22T11:51:18.510Z,96295.63
2023-04-22T11:52:21.265Z,96302.28
2023-04-22T11:53:25.701Z,96304.25
2023-04-22T11:54:33.496Z,96298.31
2023-04-22T11:55:38.410Z,96298.19
2023-04-22T11:56:40.271Z,96301.25
2023-04-22T11:57:42.262Z,96300.06
2023-04-22T11:58:44.048Z,96296.94
2023-04-22T11:59:57.027Z,96295.50
2023-04-22T12:00:59.633Z,96296.88
2023-04-22T12:02:05.042Z,96294.50
2023-04-22T12:03:15.256Z,96294.22
2023-04-22T12:04:17.635Z,96296.66
2023-04-22T12:05:19.553Z,96291.84
2023-04-22T12:06:21.515Z,96292.78
2023-04-22T12:07:23.682Z,96292.97
2023-04-22T12:08:26.981Z,96290.84
2023-04-22T12:09:28.792Z,96290.84
2023-04-22T12:10:32.373Z,96286.63
2023-04-22T12:11:34.204Z,96285.31
2023-04-22T12:12:39.499Z,96292.44
2023-04-22T12:13:42.949Z,96287.66
2023-04-22T12:14:46.289Z,96285.50
2023-04-22T12:15:48.610Z,96289.66
2023-04-22T12:16:50.910Z,96288.59